ETNL/RLG METAR and TAF weather

Enter ICAO airport designator
Station Type Date Time Source
ETNL METAR 2018/01/23 01:20 UTC NOAA

ETNL 230120Z 12003KT 7000 OVC010 M01/M02 Q1016 GRN


Station Type Date Time Source
ETNL Decoded METAR 2018/01/23 01:20 UTC NOAA

Laage, Germany (ETNL) 53-55N 012-17E 46M
Jan 22, 2018 - 08:20 PM EST / 2018.01.23 0120 UTC
Wind: from the ESE (120 degrees) at 3 MPH (3 KT):0
Visibility: 4 mile(s):0
Sky conditions: overcast
Temperature: 30 F (-1 C)
Dew Point: 28 F (-2 C)
Relative Humidity: 92%
Pressure (altimeter): 30.00 in. Hg (1016 hPa)
ob: ETNL 230120Z 12003KT 7000 OVC010 M01/M02 Q1016 GRN
cycle: 1

Station Type Date Time Source
ETNL TAF 2018/01/22 18:39 UTC NOAA

TAF ETNL 221720Z 2218/2306 11010KT 5000 BR SCT005 BKN008
TEMPO 2215/2224 12008KT 2000 -SN BKN005 OVC008
TEMPO 2303/2306 11005KT 0500 FG BKN001 BY ETGL


Example: see airport list